CheckWX is a tool to help pilots better visualize weather data.  It is not intended as a substitute for an official pre-flight weather briefing.

18:18:52 UTC

YPAD METAR
Adelaide International Airport
Adelaide, Australia
Current

19 mins ago

YPAD 121800Z 23005KT CAVOK 08/08 Q1025
Observed
Jul-12 @ 18:00 UTC
Wind
  • 230° at 5 KTS
Visibility
10,000+ meters
Flight Rules
VFR
Cloud Levels
  • Clear skies
Temperature
C / 46°F
Dewpoint
C / 46°F
Humidity
100%
Altimeter
30.27" Hg
Pressure
1024.92 hPa
Previous

49 mins ago

YPAD 121730Z 19007KT CAVOK 07/06 Q1025 NOSIG
Observed
Jul-12 @ 17:30 UTC
Wind
  • 190° at 7 KTS
Visibility
10,000+ meters
Flight Rules
VFR
Cloud Levels
  • Clear skies
Temperature
C / 45°F
Dewpoint
C / 43°F
Humidity
93%
Altimeter
30.27" Hg
Pressure
1024.92 hPa
Previous

1 hour ago

YPAD 121700Z 23004KT CAVOK 09/08 Q1025
Observed
Jul-12 @ 17:00 UTC
Wind
  • 230° at 4 KTS
Visibility
10,000+ meters
Flight Rules
VFR
Cloud Levels
  • Clear skies
Temperature
C / 48°F
Dewpoint
C / 46°F
Humidity
94%
Altimeter
30.27" Hg
Pressure
1024.92 hPa